createdAt,value
2023-04-28T00:00:51.396Z,1021.18
2023-04-28T00:01:51.586Z,1021.22
2023-04-28T00:02:51.880Z,1021.14
2023-04-28T00:03:52.102Z,1021.20
2023-04-28T00:04:52.289Z,1021.21
2023-04-28T00:05:52.306Z,1021.22
2023-04-28T00:06:52.491Z,1021.22
2023-04-28T00:07:52.655Z,1021.19
2023-04-28T00:08:52.828Z,1021.14
2023-04-28T00:09:52.989Z,1021.18
2023-04-28T00:10:53.159Z,1021.16
2023-04-28T00:11:53.350Z,1021.15
2023-04-28T00:12:53.496Z,1021.12
2023-04-28T00:13:53.660Z,1021.12
2023-04-28T00:14:53.818Z,1021.11
2023-04-28T00:15:54.033Z,1021.07
2023-04-28T00:16:54.221Z,1021.12
2023-04-28T00:17:54.452Z,1021.07
2023-04-28T00:18:54.508Z,1021.09
2023-04-28T00:19:54.715Z,1021.09
2023-04-28T00:20:54.877Z,1021.09
2023-04-28T00:21:55.056Z,1021.04
2023-04-28T00:22:55.240Z,1021.06
2023-04-28T00:23:55.399Z,1021.04
2023-04-28T00:24:55.576Z,1021.02
2023-04-28T00:25:55.740Z,1021.01
2023-04-28T00:26:55.918Z,1020.95
2023-04-28T00:27:56.087Z,1020.98
2023-04-28T00:28:56.240Z,1020.95
2023-04-28T00:29:56.430Z,1020.91
2023-04-28T00:30:56.605Z,1020.93
2023-04-28T00:31:56.962Z,1020.89
2023-04-28T00:32:56.981Z,1020.92
2023-04-28T00:33:57.110Z,1020.98
2023-04-28T00:34:57.279Z,1020.90
2023-04-28T00:35:57.451Z,1020.86
2023-04-28T00:36:57.640Z,1020.88
2023-04-28T00:37:57.803Z,1020.88
2023-04-28T00:38:57.964Z,1020.87
2023-04-28T00:39:58.141Z,1020.93
2023-04-28T00:40:58.310Z,1020.87
2023-04-28T00:41:58.480Z,1020.88
2023-04-28T00:42:58.635Z,1020.87
2023-04-28T00:43:58.795Z,1020.84
2023-04-28T00:44:58.971Z,1020.84
2023-04-28T00:45:59.191Z,1020.86
2023-04-28T00:46:59.332Z,1020.84
2023-04-28T00:47:59.540Z,1020.83
2023-04-28T00:48:59.669Z,1020.82
2023-04-28T00:49:59.843Z,1020.80
2023-04-28T00:50:59.993Z,1020.78
2023-04-28T00:52:00.214Z,1020.77
2023-04-28T00:53:00.302Z,1020.76
2023-04-28T00:54:00.478Z,1020.74
2023-04-28T00:55:00.646Z,1020.75
2023-04-28T00:56:00.816Z,1020.75
2023-04-28T00:57:00.986Z,1020.75
2023-04-28T00:58:01.167Z,1020.77
2023-04-28T00:59:01.342Z,1020.75
2023-04-28T01:00:01.600Z,1020.76
2023-04-28T01:01:01.742Z,1020.74
2023-04-28T01:02:01.920Z,1020.67
2023-04-28T01:03:02.248Z,1020.69
2023-04-28T01:04:02.397Z,1020.61
2023-04-28T01:05:02.374Z,1020.64
2023-04-28T01:06:02.525Z,1020.60
2023-04-28T01:07:02.714Z,1020.64
2023-04-28T01:08:02.881Z,1020.61
2023-04-28T01:09:03.052Z,1020.60
2023-04-28T01:10:03.240Z,1020.62
2023-04-28T01:11:03.402Z,1020.58
2023-04-28T01:12:03.612Z,1020.56
2023-04-28T01:13:03.788Z,1020.54
2023-04-28T01:14:03.976Z,1020.53
2023-04-28T01:15:04.161Z,1020.53
2023-04-28T01:16:04.335Z,1020.52
2023-04-28T01:17:04.532Z,1020.54
2023-04-28T01:18:04.733Z,1020.59
2023-04-28T01:19:04.845Z,1020.56
2023-04-28T01:20:05.015Z,1020.55
2023-04-28T01:21:05.173Z,1020.61
2023-04-28T01:22:05.390Z,1020.55
2023-04-28T01:23:05.547Z,1020.59
2023-04-28T01:24:05.740Z,1020.54
2023-04-28T01:25:05.920Z,1020.56
2023-04-28T01:26:06.092Z,1020.56
2023-04-28T01:27:06.262Z,1020.54
2023-04-28T01:28:06.407Z,1020.53
2023-04-28T01:29:06.578Z,1020.53
2023-04-28T01:30:06.772Z,1020.49
2023-04-28T01:31:06.939Z,1020.53
2023-04-28T01:32:07.131Z,1020.50
2023-04-28T01:33:07.334Z,1020.49
2023-04-28T01:34:07.474Z,1020.50
2023-04-28T01:35:07.654Z,1020.51
2023-04-28T01:36:07.817Z,1020.50
2023-04-28T01:37:07.999Z,1020.47
2023-04-28T01:38:08.151Z,1020.47
2023-04-28T01:39:08.331Z,1020.44
2023-04-28T01:40:08.498Z,1020.45
2023-04-28T01:41:08.656Z,1020.47
2023-04-28T01:42:08.849Z,1020.40
2023-04-28T01:43:09.012Z,1020.43
2023-04-28T01:44:09.200Z,1020.41
2023-04-28T01:45:09.387Z,1020.39
2023-04-28T01:46:09.553Z,1020.37
2023-04-28T01:47:09.703Z,1020.42
2023-04-28T01:48:09.890Z,1020.43
2023-04-28T01:49:10.026Z,1020.40
2023-04-28T01:50:10.220Z,1020.41
2023-04-28T01:51:10.378Z,1020.42
2023-04-28T01:52:10.562Z,1020.41
2023-04-28T01:53:10.718Z,1020.41
2023-04-28T01:54:10.893Z,1020.40
2023-04-28T01:55:11.049Z,1020.39
2023-04-28T01:56:11.210Z,1020.37
2023-04-28T01:57:11.414Z,1020.35
2023-04-28T01:58:11.557Z,1020.32
2023-04-28T01:59:11.720Z,1020.34
2023-04-28T02:00:11.906Z,1020.34
2023-04-28T02:01:12.126Z,1020.25
2023-04-28T02:02:12.280Z,1020.27
2023-04-28T02:03:12.545Z,1020.28
2023-04-28T02:04:12.672Z,1020.31
2023-04-28T02:05:12.797Z,1020.28
2023-04-28T02:06:12.982Z,1020.31
2023-04-28T02:07:13.179Z,1020.27
2023-04-28T02:08:13.353Z,1020.31
2023-04-28T02:09:13.491Z,1020.30
2023-04-28T02:10:13.662Z,1020.30
2023-04-28T02:11:13.827Z,1020.27
2023-04-28T02:12:14.007Z,1020.28
2023-04-28T02:13:14.158Z,1020.26
2023-04-28T02:14:14.594Z,1020.26
2023-04-28T02:15:14.481Z,1020.25
2023-04-28T02:16:14.715Z,1020.23
2023-04-28T02:17:14.868Z,1020.22
2023-04-28T02:18:15.056Z,1020.23
2023-04-28T02:19:15.213Z,1020.22
2023-04-28T02:20:15.418Z,1020.17
2023-04-28T02:21:15.554Z,1020.24
2023-04-28T02:22:15.756Z,1020.22
2023-04-28T02:23:15.917Z,1020.19
2023-04-28T02:24:16.412Z,1020.21
2023-04-28T02:25:16.275Z,1020.19
2023-04-28T02:26:16.447Z,1020.15
2023-04-28T02:27:16.618Z,1020.16
2023-04-28T02:28:16.758Z,1020.13
2023-04-28T02:29:16.927Z,1020.13
2023-04-28T02:30:17.103Z,1020.14
2023-04-28T02:31:17.338Z,1020.14
2023-04-28T02:32:17.450Z,1020.10
2023-04-28T02:33:17.610Z,1020.18
2023-04-28T02:34:17.913Z,1020.16
2023-04-28T02:35:17.938Z,1020.14
2023-04-28T02:36:18.105Z,1020.11
2023-04-28T02:37:18.281Z,1020.09
2023-04-28T02:38:18.448Z,1020.05
2023-04-28T02:39:18.608Z,1020.04
2023-04-28T02:40:18.779Z,1020.05
2023-04-28T02:41:18.934Z,1020.03
2023-04-28T02:42:19.136Z,1020.02
2023-04-28T02:43:19.294Z,1020.00
2023-04-28T02:44:19.518Z,1020.02
2023-04-28T02:45:19.667Z,1019.98
2023-04-28T02:46:19.867Z,1019.97
2023-04-28T02:47:20.021Z,1019.96
2023-04-28T02:48:20.192Z,1019.97
2023-04-28T02:49:20.365Z,1019.95
2023-04-28T02:50:20.528Z,1019.94
2023-04-28T02:51:20.722Z,1019.98
2023-04-28T02:52:20.893Z,1020.01
2023-04-28T02:53:21.132Z,1020.00
2023-04-28T02:54:21.290Z,1019.99
2023-04-28T02:55:21.418Z,1020.01
2023-04-28T02:56:21.590Z,1019.95
2023-04-28T02:57:21.779Z,1019.98
2023-04-28T02:58:21.956Z,1019.95
2023-04-28T02:59:22.097Z,1019.95
2023-04-28T03:00:22.288Z,1019.98
2023-04-28T03:01:22.464Z,1019.94
2023-04-28T03:02:22.777Z,1019.93
2023-04-28T03:03:22.862Z,1019.95
2023-04-28T03:04:23.157Z,1019.91
2023-04-28T03:05:23.095Z,1019.93
2023-04-28T03:06:23.261Z,1019.91
2023-04-28T03:07:23.456Z,1019.90
2023-04-28T03:08:23.621Z,1019.91
2023-04-28T03:09:23.786Z,1019.89
2023-04-28T03:10:23.943Z,1019.90
2023-04-28T03:11:24.104Z,1019.93
2023-04-28T03:12:24.284Z,1019.88
2023-04-28T03:13:24.451Z,1019.84
2023-04-28T03:14:24.654Z,1019.86
2023-04-28T03:15:24.823Z,1019.87
2023-04-28T03:16:25.050Z,1019.84
2023-04-28T03:17:25.227Z,1019.83
2023-04-28T03:18:25.350Z,1019.85
2023-04-28T03:19:25.515Z,1019.83
2023-04-28T03:20:25.687Z,1019.80
2023-04-28T03:21:25.850Z,1019.82
2023-04-28T03:22:26.050Z,1019.83
2023-04-28T03:23:26.194Z,1019.83
2023-04-28T03:24:26.371Z,1019.85
2023-04-28T03:25:26.535Z,1019.84
2023-04-28T03:26:26.724Z,1019.81
2023-04-28T03:27:26.908Z,1019.81
2023-04-28T03:28:27.056Z,1019.79
2023-04-28T03:29:27.249Z,1019.78
2023-04-28T03:30:27.457Z,1019.78
2023-04-28T03:31:27.602Z,1019.80
2023-04-28T03:32:27.864Z,1019.77
2023-04-28T03:33:27.941Z,1019.78
2023-04-28T03:34:28.116Z,1019.79
2023-04-28T03:35:28.285Z,1019.79
2023-04-28T03:36:28.486Z,1019.78
2023-04-28T03:37:28.639Z,1019.74
2023-04-28T03:38:28.797Z,1019.75
2023-04-28T03:39:28.944Z,1019.71
2023-04-28T03:40:29.136Z,1019.72
2023-04-28T03:41:29.339Z,1019.77
2023-04-28T03:42:29.520Z,1019.71
2023-04-28T03:43:29.703Z,1019.72
2023-04-28T03:44:29.885Z,1019.70
2023-04-28T03:45:30.064Z,1019.69
2023-04-28T03:46:30.275Z,1019.69
2023-04-28T03:47:30.403Z,1019.69
2023-04-28T03:48:30.619Z,1019.73
2023-04-28T03:49:30.762Z,1019.66
2023-04-28T03:50:30.934Z,1019.70
2023-04-28T03:51:31.085Z,1019.66
2023-04-28T03:52:31.291Z,1019.64
2023-04-28T03:53:31.468Z,1019.66
2023-04-28T03:54:31.596Z,1019.64
2023-04-28T03:55:31.792Z,1019.60
2023-04-28T03:56:31.961Z,1019.63
2023-04-28T03:57:32.164Z,1019.60
2023-04-28T03:58:32.317Z,1019.58
2023-04-28T03:59:32.459Z,1019.60
2023-04-28T04:00:32.638Z,1019.49
2023-04-28T04:01:32.836Z,1019.51
2023-04-28T04:02:33.198Z,1019.48
2023-04-28T04:03:33.361Z,1019.46
2023-04-28T04:04:33.487Z,1019.44
2023-04-28T04:05:33.585Z,1019.46
2023-04-28T04:06:33.685Z,1019.47
2023-04-28T04:07:33.893Z,1019.48
2023-04-28T04:08:34.050Z,1019.44
2023-04-28T04:09:34.221Z,1019.45
2023-04-28T04:10:34.402Z,1019.40
2023-04-28T04:11:34.547Z,1019.41
2023-04-28T04:12:34.735Z,1019.40
2023-04-28T04:13:34.878Z,1019.38
2023-04-28T04:14:35.058Z,1019.37
2023-04-28T04:15:35.269Z,1019.32
2023-04-28T04:16:35.422Z,1019.34
2023-04-28T04:17:35.651Z,1019.35
2023-04-28T04:18:35.764Z,1019.38
2023-04-28T04:19:35.915Z,1019.38
2023-04-28T04:20:36.089Z,1019.36
2023-04-28T04:21:36.275Z,1019.34
2023-04-28T04:22:36.464Z,1019.34
2023-04-28T04:23:36.591Z,1019.33
2023-04-28T04:24:36.779Z,1019.36
2023-04-28T04:25:36.968Z,1019.32
2023-04-28T04:26:37.132Z,1019.36
2023-04-28T04:27:37.308Z,1019.33
2023-04-28T04:28:37.529Z,1019.34
2023-04-28T04:29:37.653Z,1019.35
2023-04-28T04:30:37.824Z,1019.32
2023-04-28T04:31:38.145Z,1019.34
2023-04-28T04:32:38.190Z,1019.35
2023-04-28T04:33:38.365Z,1019.37
2023-04-28T04:34:38.518Z,1019.35
2023-04-28T04:35:38.698Z,1019.37
2023-04-28T04:36:38.869Z,1019.36
2023-04-28T04:37:39.119Z,1019.38
2023-04-28T04:38:39.211Z,1019.34
2023-04-28T04:39:39.418Z,1019.36
2023-04-28T04:40:39.550Z,1019.34
2023-04-28T04:41:39.770Z,1019.33
2023-04-28T04:42:39.944Z,1019.35
2023-04-28T04:43:40.100Z,1019.35
2023-04-28T04:44:40.265Z,1019.37
2023-04-28T04:45:40.441Z,1019.36
2023-04-28T04:46:40.662Z,1019.36
2023-04-28T04:47:40.830Z,1019.26
2023-04-28T04:48:40.934Z,1019.30
2023-04-28T04:49:41.133Z,1019.30
2023-04-28T04:50:41.274Z,1019.26
2023-04-28T04:51:41.505Z,1019.26
2023-04-28T04:52:41.662Z,1019.25
2023-04-28T04:53:41.838Z,1019.20
2023-04-28T04:54:42.018Z,1019.22
2023-04-28T04:55:42.211Z,1019.25
2023-04-28T04:56:42.371Z,1019.21
2023-04-28T04:57:42.559Z,1019.21
2023-04-28T04:58:42.695Z,1019.18
2023-04-28T04:59:42.876Z,1019.15
2023-04-28T05:00:43.065Z,1019.11
2023-04-28T05:01:43.323Z,1019.13
2023-04-28T05:02:43.529Z,1019.08
2023-04-28T05:03:43.787Z,1019.06
2023-04-28T05:04:43.836Z,1019.00
2023-04-28T05:05:45.979Z,1019.01
2023-04-28T05:06:44.123Z,1019.02
2023-04-28T05:07:44.300Z,1019.04
2023-04-28T05:08:44.480Z,1019.05
2023-04-28T05:09:44.660Z,1019.00
2023-04-28T05:10:44.813Z,1019.01
2023-04-28T05:11:44.989Z,1018.98
2023-04-28T05:12:46.873Z,1019.04
2023-04-28T05:13:45.335Z,1019.01
2023-04-28T05:14:45.494Z,1019.00
2023-04-28T05:15:45.671Z,1018.99
2023-04-28T05:16:45.876Z,1018.99
2023-04-28T05:17:46.051Z,1018.99
2023-04-28T05:18:46.179Z,1018.97
2023-04-28T05:19:46.335Z,1018.92
2023-04-28T05:20:46.518Z,1018.95
2023-04-28T05:21:46.682Z,1018.90
2023-04-28T05:22:46.868Z,1018.88
2023-04-28T05:23:47.048Z,1018.90
2023-04-28T05:24:47.224Z,1018.84
2023-04-28T05:25:47.392Z,1018.86
2023-04-28T05:26:47.564Z,1018.84
2023-04-28T05:27:47.803Z,1018.79
2023-04-28T05:28:47.932Z,1018.83
2023-04-28T05:29:48.103Z,1018.81
2023-04-28T05:30:48.286Z,1018.76
2023-04-28T05:31:48.518Z,1018.71
2023-04-28T05:32:48.651Z,1018.74
2023-04-28T05:33:48.804Z,1018.73
2023-04-28T05:34:48.979Z,1018.74
2023-04-28T05:35:49.151Z,1018.73
2023-04-28T05:36:49.315Z,1018.66
2023-04-28T05:37:49.498Z,1018.62
2023-04-28T05:38:49.669Z,1018.60
2023-04-28T05:39:49.838Z,1018.58
2023-04-28T05:40:50.004Z,1018.57
2023-04-28T05:41:50.190Z,1018.56
2023-04-28T05:42:50.394Z,1018.57
2023-04-28T05:43:50.518Z,1018.59
2023-04-28T05:44:50.677Z,1018.58
2023-04-28T05:45:50.917Z,1018.60
2023-04-28T05:46:51.132Z,1018.59
2023-04-28T05:47:51.264Z,1018.58
2023-04-28T05:48:51.413Z,1018.55
2023-04-28T05:49:51.615Z,1018.51
2023-04-28T05:50:51.789Z,1018.58
2023-04-28T05:51:51.951Z,1018.54
2023-04-28T05:52:52.097Z,1018.62
2023-04-28T05:53:52.293Z,1018.58
2023-04-28T05:54:52.454Z,1018.56
2023-04-28T05:55:52.660Z,1018.55
2023-04-28T05:56:52.829Z,1018.51
2023-04-28T05:57:53.710Z,1018.52
2023-04-28T05:58:53.117Z,1018.51
2023-04-28T05:59:53.329Z,1018.54
2023-04-28T06:00:53.500Z,1018.52
2023-04-28T06:01:53.641Z,1018.43
2023-04-28T06:02:53.986Z,1018.38
2023-04-28T06:03:54.257Z,1018.35
2023-04-28T06:04:54.355Z,1018.32
2023-04-28T06:05:54.415Z,1018.34
2023-04-28T06:06:54.571Z,1018.34
2023-04-28T06:07:55.186Z,1018.30
2023-04-28T06:08:54.849Z,1018.35
2023-04-28T06:09:55.018Z,1018.35
2023-04-28T06:10:55.195Z,1018.33
2023-04-28T06:11:55.379Z,1018.37
2023-04-28T06:12:55.568Z,1018.35
2023-04-28T06:13:55.768Z,1018.35
2023-04-28T06:14:55.925Z,1018.38
2023-04-28T06:15:56.097Z,1018.36
2023-04-28T06:16:56.230Z,1018.31
2023-04-28T06:17:56.525Z,1018.30
2023-04-28T06:18:56.611Z,1018.31
2023-04-28T06:19:56.769Z,1018.26
2023-04-28T06:20:56.985Z,1018.28
2023-04-28T06:21:57.152Z,1018.25
2023-04-28T06:22:57.327Z,1018.25
2023-04-28T06:23:57.481Z,1018.24
2023-04-28T06:24:57.638Z,1018.30
2023-04-28T06:25:57.808Z,1018.29
2023-04-28T06:26:57.974Z,1018.25
2023-04-28T06:27:58.126Z,1018.20
2023-04-28T06:28:58.285Z,1018.19
2023-04-28T06:29:58.485Z,1018.18
2023-04-28T06:30:58.686Z,1018.17
2023-04-28T06:31:58.854Z,1018.15
2023-04-28T06:32:59.041Z,1018.16
2023-04-28T06:33:59.185Z,1018.15
2023-04-28T06:34:59.341Z,1018.11
2023-04-28T06:35:59.510Z,1018.06
2023-04-28T06:36:59.742Z,1018.14
2023-04-28T06:37:59.881Z,1018.05
2023-04-28T06:39:00.090Z,1018.04
2023-04-28T06:40:00.236Z,1018.07
2023-04-28T06:41:00.398Z,1018.02
2023-04-28T06:42:00.584Z,1018.01
2023-04-28T06:43:00.765Z,1018.02
2023-04-28T06:44:00.928Z,1018.04
2023-04-28T06:45:01.093Z,1018.00
2023-04-28T06:46:01.294Z,1018.02
2023-04-28T06:47:01.562Z,1018.06
2023-04-28T06:48:01.675Z,1018.01
2023-04-28T06:49:01.805Z,1017.99
2023-04-28T06:50:01.996Z,1017.96
2023-04-28T06:51:02.254Z,1018.00
2023-04-28T06:52:02.348Z,1017.97
2023-04-28T06:53:02.536Z,1017.97
2023-04-28T06:54:02.696Z,1017.89
2023-04-28T06:55:02.909Z,1017.91
2023-04-28T06:56:03.091Z,1017.91
2023-04-28T06:57:03.230Z,1017.87
2023-04-28T06:58:03.388Z,1017.92
2023-04-28T06:59:03.536Z,1017.86
2023-04-28T07:00:03.725Z,1017.82
2023-04-28T07:01:03.928Z,1017.88
2023-04-28T07:02:04.079Z,1017.86
2023-04-28T07:03:04.506Z,1017.86
2023-04-28T07:04:04.495Z,1017.83
2023-04-28T07:05:04.644Z,1017.83
2023-04-28T07:06:04.796Z,1017.81
2023-04-28T07:07:04.938Z,1017.80
2023-04-28T07:08:05.100Z,1017.78
2023-04-28T07:09:05.279Z,1017.77
2023-04-28T07:10:05.496Z,1017.71
2023-04-28T07:11:05.663Z,1017.79
2023-04-28T07:12:05.824Z,1017.74
2023-04-28T07:13:05.968Z,1017.67
2023-04-28T07:14:06.174Z,1017.63
2023-04-28T07:15:06.514Z,1017.68
2023-04-28T07:16:06.555Z,1017.60
2023-04-28T07:17:06.695Z,1017.58
2023-04-28T07:18:06.887Z,1017.64
2023-04-28T07:19:07.015Z,1017.65
2023-04-28T07:20:07.217Z,1017.53
2023-04-28T07:21:07.420Z,1017.51
2023-04-28T07:22:07.534Z,1017.42
2023-04-28T07:23:07.737Z,1017.51
2023-04-28T07:24:07.901Z,1017.46
2023-04-28T07:25:08.097Z,1017.45
2023-04-28T07:26:08.319Z,1017.46
2023-04-28T07:27:08.456Z,1017.41
2023-04-28T07:28:08.633Z,1017.36
2023-04-28T07:29:08.794Z,1017.44
2023-04-28T07:30:19.019Z,1017.50
2023-04-28T07:31:10.146Z,1017.41
2023-04-28T07:32:09.333Z,1017.44
2023-04-28T07:33:09.775Z,1017.42
2023-04-28T07:34:09.648Z,1017.40
2023-04-28T07:35:09.802Z,1017.41
2023-04-28T07:36:10.077Z,1017.36
2023-04-28T07:37:10.166Z,1017.41
2023-04-28T07:38:10.463Z,1017.38
2023-04-28T07:39:10.548Z,1017.38
2023-04-28T07:40:10.732Z,1017.34
2023-04-28T07:41:11.345Z,1017.36
2023-04-28T07:42:11.049Z,1017.36
2023-04-28T07:43:11.240Z,1017.33
2023-04-28T07:44:11.487Z,1017.36
2023-04-28T07:45:11.587Z,1017.34
2023-04-28T07:46:11.877Z,1017.36
2023-04-28T07:47:11.935Z,1017.31
2023-04-28T07:48:12.149Z,1017.36
2023-04-28T07:49:12.268Z,1017.30
2023-04-28T07:50:12.494Z,1017.36
2023-04-28T07:51:12.658Z,1017.33
2023-04-28T07:52:12.836Z,1017.38
2023-04-28T07:53:13.007Z,1017.19
2023-04-28T07:54:13.198Z,1017.24
2023-04-28T07:55:13.364Z,1017.21
2023-04-28T07:56:13.566Z,1017.26
2023-04-28T07:57:13.778Z,1017.22
2023-04-28T07:58:13.898Z,1017.28
2023-04-28T07:59:14.042Z,1017.22
2023-04-28T08:00:14.239Z,1017.22
2023-04-28T08:01:14.417Z,1017.20
2023-04-28T08:02:14.587Z,1017.24
2023-04-28T08:03:14.949Z,1017.10
2023-04-28T08:04:15.406Z,1017.11
2023-04-28T08:05:15.497Z,1017.13
2023-04-28T08:06:15.310Z,1017.17
2023-04-28T08:07:15.533Z,1017.07
2023-04-28T08:08:15.642Z,1017.09
2023-04-28T08:09:15.806Z,1017.10
2023-04-28T08:10:16.016Z,1017.09
2023-04-28T08:11:16.149Z,1017.07
2023-04-28T08:12:16.380Z,1017.06
2023-04-28T08:13:16.511Z,1017.11
2023-04-28T08:14:16.898Z,1017.06
2023-04-28T08:15:18.373Z,1017.04
2023-04-28T08:16:17.093Z,1017.04
2023-04-28T08:17:17.191Z,1017.03
2023-04-28T08:18:17.437Z,1017.00
2023-04-28T08:19:17.561Z,1017.05
2023-04-28T08:20:17.759Z,1017.01
2023-04-28T08:21:17.950Z,1017.00
2023-04-28T08:22:18.150Z,1017.02
2023-04-28T08:23:18.277Z,1016.96
2023-04-28T08:24:18.641Z,1016.92
2023-04-28T08:25:18.688Z,1016.92
2023-04-28T08:26:18.828Z,1016.93
2023-04-28T08:27:18.979Z,1016.94
2023-04-28T08:28:19.146Z,1017.00
2023-04-28T08:29:19.345Z,1017.00
2023-04-28T08:30:19.542Z,1016.92
2023-04-28T08:31:19.701Z,1016.96
2023-04-28T08:32:19.845Z,1016.87
2023-04-28T08:33:20.022Z,1016.83
2023-04-28T08:34:20.342Z,1016.85
2023-04-28T08:35:20.351Z,1016.81
2023-04-28T08:36:20.549Z,1016.85
2023-04-28T08:37:20.696Z,1016.90
2023-04-28T08:38:22.194Z,1016.84
2023-04-28T08:39:21.044Z,1016.82
2023-04-28T08:40:21.234Z,1016.80
2023-04-28T08:41:21.398Z,1016.80
2023-04-28T08:42:21.560Z,1016.79
2023-04-28T08:43:21.886Z,1016.83
2023-04-28T08:44:21.936Z,1016.78
2023-04-28T08:45:22.068Z,1016.69
2023-04-28T08:46:22.298Z,1016.70
2023-04-28T08:47:22.407Z,1016.74
2023-04-28T08:48:22.794Z,1016.71
2023-04-28T08:49:22.765Z,1016.71
2023-04-28T08:50:22.923Z,1016.70
2023-04-28T08:51:23.127Z,1016.64
2023-04-28T08:52:23.429Z,1016.55
2023-04-28T08:53:23.744Z,1016.62
2023-04-28T08:54:29.546Z,1016.59
2023-04-28T08:55:24.829Z,1016.65
2023-04-28T08:56:24.002Z,1016.62
2023-04-28T08:57:24.203Z,1016.60
2023-04-28T08:58:24.408Z,1016.56
2023-04-28T08:59:24.538Z,1016.52
2023-04-28T09:00:24.670Z,1016.50
2023-04-28T09:01:24.903Z,1016.52
2023-04-28T09:02:25.219Z,1016.52
2023-04-28T09:03:25.308Z,1016.52
2023-04-28T09:04:25.731Z,1016.53
2023-04-28T09:05:25.858Z,1016.44
2023-04-28T09:06:25.803Z,1016.51
2023-04-28T09:07:25.894Z,1016.46
2023-04-28T09:08:26.073Z,1016.45
2023-04-28T09:09:26.281Z,1016.37
2023-04-28T09:10:26.454Z,1016.46
2023-04-28T09:11:26.623Z,1016.43
2023-04-28T09:12:26.767Z,1016.45
2023-04-28T09:13:26.940Z,1016.42
2023-04-28T09:14:27.140Z,1016.40
2023-04-28T09:15:27.298Z,1016.46
2023-04-28T09:16:27.514Z,1016.47
2023-04-28T09:17:27.679Z,1016.28
2023-04-28T09:18:27.795Z,1016.34
2023-04-28T09:19:27.958Z,1016.32
2023-04-28T09:20:28.151Z,1016.35
2023-04-28T09:21:28.348Z,1016.31
2023-04-28T09:22:28.520Z,1016.30
2023-04-28T09:23:28.667Z,1016.32
2023-04-28T09:24:28.829Z,1016.25
2023-04-28T09:25:29.051Z,1016.24
2023-04-28T09:26:29.228Z,1016.26
2023-04-28T09:27:29.688Z,1016.26
2023-04-28T09:28:29.552Z,1016.23
2023-04-28T09:29:29.775Z,1016.22
2023-04-28T09:30:29.902Z,1016.22
2023-04-28T09:31:30.146Z,1016.25
2023-04-28T09:32:30.352Z,1016.20
2023-04-28T09:33:30.460Z,1016.19
2023-04-28T09:34:30.623Z,1016.22
2023-04-28T09:35:30.817Z,1016.22
2023-04-28T09:36:31.022Z,1016.23
2023-04-28T09:37:31.212Z,1016.16
2023-04-28T09:38:31.350Z,1016.19
2023-04-28T09:39:31.554Z,1016.17
2023-04-28T09:40:31.709Z,1016.12
2023-04-28T09:41:31.877Z,1016.14
2023-04-28T09:42:32.035Z,1016.10
2023-04-28T09:43:32.213Z,1016.07
2023-04-28T09:44:32.362Z,1016.02
2023-04-28T09:45:32.526Z,1016.07
2023-04-28T09:46:32.866Z,1016.05
2023-04-28T09:47:32.928Z,1016.05
2023-04-28T09:48:33.056Z,1016.02
2023-04-28T09:49:33.245Z,1016.03
2023-04-28T09:50:33.388Z,1016.03
2023-04-28T09:51:33.657Z,1015.99
2023-04-28T09:52:33.798Z,1015.96
2023-04-28T09:53:33.951Z,1015.97
2023-04-28T09:54:34.119Z,1015.95
2023-04-28T09:55:34.310Z,1015.89
2023-04-28T09:56:34.452Z,1015.89
2023-04-28T09:57:34.660Z,1015.90
2023-04-28T09:58:34.819Z,1015.89
2023-04-28T09:59:35.016Z,1015.90
2023-04-28T10:00:35.207Z,1015.84
2023-04-28T10:01:35.459Z,1015.83
2023-04-28T10:03:35.807Z,1015.78
2023-04-28T10:04:36.099Z,1015.78
2023-04-28T10:05:36.154Z,1015.80
2023-04-28T10:06:36.209Z,1015.75
2023-04-28T10:07:36.398Z,1015.74
2023-04-28T10:08:36.562Z,1015.76
2023-04-28T10:09:36.735Z,1015.70
2023-04-28T10:10:36.939Z,1015.83
2023-04-28T10:11:37.055Z,1015.73
2023-04-28T10:12:37.251Z,1015.69
2023-04-28T10:13:37.442Z,1015.75
2023-04-28T10:14:37.593Z,1015.73
2023-04-28T10:15:37.770Z,1015.72
2023-04-28T10:16:37.957Z,1015.66
2023-04-28T10:17:38.159Z,1015.78
2023-04-28T10:18:38.360Z,1015.74
2023-04-28T10:19:38.680Z,1015.77
2023-04-28T10:20:38.671Z,1015.69
2023-04-28T10:21:38.760Z,1015.68
2023-04-28T10:22:39.016Z,1015.68
2023-04-28T10:23:39.122Z,1015.69
2023-04-28T10:24:39.370Z,1015.67
2023-04-28T10:25:39.498Z,1015.64
2023-04-28T10:26:39.655Z,1015.62
2023-04-28T10:27:39.840Z,1015.64
2023-04-28T10:28:41.480Z,1015.70
2023-04-28T10:29:40.198Z,1015.69
2023-04-28T10:30:40.328Z,1015.67
2023-04-28T10:31:40.547Z,1015.62
2023-04-28T10:32:40.715Z,1015.62
2023-04-28T10:33:40.937Z,1015.56
2023-04-28T10:34:41.043Z,1015.61
2023-04-28T10:35:41.238Z,1015.54
2023-04-28T10:36:41.410Z,1015.53
2023-04-28T10:37:41.603Z,1015.58
2023-04-28T10:38:41.771Z,1015.54
2023-04-28T10:39:41.949Z,1015.51
2023-04-28T10:40:42.112Z,1015.51
2023-04-28T10:41:42.326Z,1015.46
2023-04-28T10:42:42.448Z,1015.46
2023-04-28T10:43:42.665Z,1015.42
2023-04-28T10:44:42.831Z,1015.37
2023-04-28T10:45:43.044Z,1015.39
2023-04-28T10:46:43.186Z,1015.39
2023-04-28T10:47:43.437Z,1015.40
2023-04-28T10:48:43.489Z,1015.41
2023-04-28T10:49:43.929Z,1015.36
2023-04-28T10:50:43.869Z,1015.39
2023-04-28T10:51:44.036Z,1015.40
2023-04-28T10:52:44.411Z,1015.34
2023-04-28T10:53:44.757Z,1015.38
2023-04-28T10:54:44.575Z,1015.42
2023-04-28T10:55:44.989Z,1015.33
2023-04-28T10:56:44.952Z,1015.31
2023-04-28T10:57:45.047Z,1015.29
2023-04-28T10:58:45.341Z,1015.28
2023-04-28T10:59:45.401Z,1015.27
2023-04-28T11:00:45.644Z,1015.33
2023-04-28T11:01:45.810Z,1015.25
2023-04-28T11:02:46.000Z,1015.22
2023-04-28T11:03:46.195Z,1015.20
2023-04-28T11:04:46.646Z,1015.20
2023-04-28T11:05:46.481Z,1015.26
2023-04-28T11:06:46.609Z,1015.22
2023-04-28T11:07:46.801Z,1015.22
2023-04-28T11:08:46.932Z,1015.21
2023-04-28T11:09:47.101Z,1015.21
2023-04-28T11:10:47.295Z,1015.22
2023-04-28T11:11:47.443Z,1015.28
2023-04-28T11:12:47.613Z,1015.21
2023-04-28T11:13:47.808Z,1015.24
2023-04-28T11:14:47.969Z,1015.24
2023-04-28T11:15:48.161Z,1015.25
2023-04-28T11:16:48.425Z,1015.25
2023-04-28T11:17:48.574Z,1015.22
2023-04-28T11:18:48.669Z,1015.23
2023-04-28T11:19:48.869Z,1015.21
2023-04-28T11:20:49.019Z,1015.19
2023-04-28T11:21:49.255Z,1015.14
2023-04-28T11:22:49.380Z,1015.18
2023-04-28T11:23:49.544Z,1015.22
2023-04-28T11:24:49.718Z,1015.15
2023-04-28T11:25:49.929Z,1015.19
2023-04-28T11:26:50.096Z,1015.20
2023-04-28T11:27:50.258Z,1015.16
2023-04-28T11:28:50.416Z,1015.19
2023-04-28T11:29:50.645Z,1015.20
2023-04-28T11:30:52.543Z,1015.17
2023-04-28T11:31:51.000Z,1015.11
2023-04-28T11:32:51.223Z,1015.14
2023-04-28T11:33:51.308Z,1015.13
2023-04-28T11:34:51.476Z,1015.13
2023-04-28T11:35:51.647Z,1015.09
2023-04-28T11:36:54.154Z,1015.13
2023-04-28T11:37:51.996Z,1015.11
2023-04-28T11:38:52.155Z,1015.12
2023-04-28T11:39:52.371Z,1015.06
2023-04-28T11:40:52.541Z,1015.13
2023-04-28T11:41:52.708Z,1015.16
2023-04-28T11:42:52.902Z,1015.11
2023-04-28T11:43:53.079Z,1015.11
2023-04-28T11:44:53.258Z,1015.06
2023-04-28T11:45:53.481Z,1015.02
2023-04-28T11:46:53.579Z,1015.01
2023-04-28T11:47:53.771Z,1015.01
2023-04-28T11:48:53.943Z,1014.98
2023-04-28T11:49:54.092Z,1015.00
2023-04-28T11:50:54.296Z,1015.01
2023-04-28T11:51:54.430Z,1015.06
2023-04-28T11:52:54.605Z,1015.04
2023-04-28T11:53:54.773Z,1015.00
2023-04-28T11:54:54.935Z,1015.01
2023-04-28T11:55:55.131Z,1014.98
2023-04-28T11:56:55.318Z,1014.99
2023-04-28T11:57:55.485Z,1014.97
2023-04-28T11:58:55.705Z,1014.99
2023-04-28T11:59:55.843Z,1014.91
2023-04-28T12:00:56.006Z,1014.90
2023-04-28T12:01:56.223Z,1014.88
2023-04-28T12:02:56.473Z,1014.91
2023-04-28T12:03:56.641Z,1014.86
2023-04-28T12:04:56.824Z,1014.86
2023-04-28T12:05:56.911Z,1014.86
2023-04-28T12:06:57.062Z,1014.86
2023-04-28T12:07:57.258Z,1014.83
2023-04-28T12:08:57.427Z,1014.77